Airfield :
LOGIN :

Register | Disclaimer

   EN    FR    IT 

 










Legend :    VFR   Marginal VFR   IFR   Intensive IFR   Very Intensive IFR
Visi :
Ceiling :
>= 8 km
>= 3000ft
5 to 8 km
1000 to 3000 ft
1500m to 5 km
500 to 1000 ft
800 to 1500m
200 to 500 ft
< 800m
< 200 ft
Symbols :   Thunderstorms  Fog  Heavy snow  Heavy precipitations  Wind > 20 kt
SIGMETs :     Misc.  Thunderstorms  Icing  Turbulence  Mountain Waves  Volcanic Ashes






- Airport Elevation : 1895 ft


LSMM - Meiringen

CURRENT METAR :
  • 190220Z AUTO 29003KT 240V330 9999NDV NCD 15/12 Q1014 RMK

EXPIRED METARs :
  • 190150Z AUTO 30003KT 260V360 9999NDV FEW150 16/12 Q1014 RMK
  • 190120Z AUTO 26004KT 230V320 9999NDV FEW160 16/12 Q1014 RMK
  • 190050Z AUTO 28003KT 250V330 9999NDV FEW150 16/12 Q1015 RMK
  • 190020Z AUTO 28003KT 240V330 9999NDV FEW150 17/12 Q1015 RMK
  • 182350Z AUTO VRB02KT 9999NDV SCT150 SCT200 17/12 Q1015 RMK
  • 182320Z AUTO 26004KT 210V340 9999NDV FEW150 17/12 Q1015 RMK
  • 182250Z AUTO VRB02KT 9999NDV NCD 18/12 Q1014 RMK
  • 182220Z AUTO VRB02KT 9999NDV NCD 18/12 Q1014 RMK
  • 182150Z AUTO VRB03KT 9999NDV NCD 18/12 Q1014 RMK

Expired Forecast.



MET'MAP, your aeronautical weather chart ! - Copyright ORBIFLY December 2007 - Disclaimer

ORBIFLY MET'MAP TEAM :

Programming & Development : Alexandra Zaïnal
Original concept : Baudouin d'Aumeries
Technical & hardware support : Manuel Goepfert
Assistance : Marc-Olivier Méhu




SOURCES & CREDITS :

   NOAA